Strona główna
METAR-TAF:

METAR-TAF

Lotnisko :

Mersing, Malezja

Szerokość geograficzna: 02-23-00N, Długość geograficzna: 103-51-34E, wysokość: 3 m

Aktualna obserwacja pogody

Raport powstał 40 minut temu, godzina 21:00 UTC
Wiatr 5 kt od południowy zachód, zmienny między południowy wschód i zachodnio-południowy zachód
Temperatura 25°C
Wilgotność 94%
Ciśnienie 1009 hPa

METAR: WMAU 102100Z AUTO 23005KT 140V240 //// // ////// 25/24 Q1009

czas: 05:40 (21:40 UTC)


TAF: brakujący

Obserwacja i prognoza pogody dla ponad 4000 lotnisk (raport METAR i TAF).

Dostępne stacje oznaczono żółtymi i czerwonymi punktami na mapie.

Najedź kursorem aby zobaczyć nazwę stacji.

Kliknij aby zobaczyć obserwacje i prognozy pogody.

Aby zmienić mapę: kliknij na zielony przycisk z czarnym krzyżykiem, aby powiększyć; na zielony przycisk z myślnikiem, aby pomniejszyć; na zielone strzałki, aby przejść do map sąsiednich.


METAR-TAF: